Latest Weather Observations for Frankston Beach

IDV60801

Issued at 11:52 am EST Tuesday 27 September 2022 (issued every 10 minutes, with the page automatically refreshed every 10 minutes)

About weather observations | Map of weather stations | Latest weather observations for VIC | Other Formats
Station Details ID: 086371 Name: FRANKSTON BEACH Lat: -38.15 Lon: 145.12 Height: 6.0 m
Data from the previous 72 hours. | See also: Recent months at Frankston Beach
Date/Time
EST
Temp
°C
App
Temp
°C
Dew
Point
°C
Rel
Hum
%
Delta-T
°C
Wind Press
QNH
hPa
Press
MSL
hPa
Rain since
9am
mm
Dir  Spd
km/h
Gust
km/h
Spd
kts
Gust
kts
27/11:30am - - - - - SE 15 26 8 14 - - -
27/11:00am - - - - - SE 13 26 7 14 - - -
27/10:30am - - - - - SSE 11 20 6 11 - - -
27/10:00am - - - - - ESE 11 19 6 10 - - -
27/09:30am - - - - - SSE 11 19 6 10 - - -
27/09:00am - - - - - SSE 7 13 4 7 - - -
27/08:30am - - - - - ESE 9 17 5 9 - - -
27/08:00am - - - - - ESE 9 13 5 7 - - -
27/07:30am - - - - - SE 7 11 4 6 - - -
27/07:00am - - - - - SE 11 15 6 8 - - -
27/06:30am - - - - - SE 9 11 5 6 - - -
27/06:00am - - - - - SE 9 13 5 7 - - -
27/05:30am - - - - - ESE 9 13 5 7 - - -
27/05:00am - - - - - ESE 7 9 4 5 - - -
27/04:30am - - - - - ESE 9 11 5 6 - - -
27/04:00am - - - - - ESE 7 9 4 5 - - -
27/03:30am - - - - - ESE 7 11 4 6 - - -
27/03:00am - - - - - ESE 7 11 4 6 - - -
27/02:30am - - - - - ESE 7 9 4 5 - - -
27/02:00am - - - - - ESE 6 7 3 4 - - -
27/01:30am - - - - - ESE 7 11 4 6 - - -
27/01:00am - - - - - ESE 9 11 5 6 - - -
27/12:30am - - - - - ESE 7 9 4 5 - - -
27/12:00am - - - - - ESE 7 11 4 6 - - -
 
Date/Time
EST
Temp
°C
App
Temp
°C
Dew
Point
°C
Rel
Hum
%
Delta-T
°C
Wind Press
QNH
hPa
Press
MSL
hPa
Rain since
9am
mm
Dir  Spd
km/h
Gust
km/h
Spd
kts
Gust
kts
26/11:30pm - - - - - ESE 7 9 4 5 - - -
26/11:00pm - - - - - CALM 0 0 0 0 - - -
26/10:30pm - - - - - ESE 2 7 1 4 - - -
26/10:00pm - - - - - CALM 0 4 0 2 - - -
26/09:30pm - - - - - NNE 9 11 5 6 - - -
26/09:00pm - - - - - NNE 9 11 5 6 - - -
26/08:30pm - - - - - NNE 9 13 5 7 - - -
26/08:00pm - - - - - NNE 9 13 5 7 - - -
26/07:30pm - - - - - NNE 13 15 7 8 - - -
26/07:00pm - - - - - NNE 15 26 8 14 - - -
26/06:30pm - - - - - NNE 15 20 8 11 - - -
26/06:00pm - - - - - NNE 15 19 8 10 - - -
26/05:30pm - - - - - NNE 13 17 7 9 - - -
26/05:00pm - - - - - N 22 26 12 14 - - -
26/04:30pm - - - - - NNW 22 26 12 14 - - -
26/04:00pm - - - - - NNW 20 26 11 14 - - -
26/03:30pm - - - - - NW 13 15 7 8 - - -
26/03:00pm - - - - - NW 19 26 10 14 - - -
26/02:30pm - - - - - NW 28 33 15 18 - - -
26/02:00pm - - - - - NNW 19 28 10 15 - - -
26/01:30pm - - - - - NW 17 19 9 10 - - -
26/01:00pm - - - - - WNW 11 22 6 12 - - -
26/12:30pm - - - - - W 6 11 3 6 - - -
26/12:00pm - - - - - NNW 2 6 1 3 - - -
26/11:30am - - - - - NNW 9 11 5 6 - - -
26/11:00am - - - - - N 13 15 7 8 - - -
26/10:30am - - - - - NNW 11 17 6 9 - - -
26/10:00am - - - - - WNW 4 7 2 4 - - -
26/09:30am - - - - - W 6 7 3 4 - - -
26/09:00am - - - - - NNE 7 9 4 5 - - -
26/08:30am - - - - - N 7 9 4 5 - - -
26/08:00am - - - - - E 2 9 1 5 - - -
26/07:30am - - - - - ENE 7 9 4 5 - - -
26/07:00am - - - - - E 4 7 2 4 - - -
26/06:30am - - - - - ESE 7 9 4 5 - - -
26/06:00am - - - - - E 6 7 3 4 - - -
26/05:30am - - - - - ESE 6 7 3 4 - - -
26/05:00am - - - - - ESE 6 9 3 5 - - -
26/04:30am - - - - - ESE 7 11 4 6 - - -
26/04:00am - - - - - CALM 0 0 0 0 - - -
26/03:30am - - - - - ESE 2 7 1 4 - - -
26/03:00am - - - - - ESE 7 9 4 5 - - -
26/02:30am - - - - - ENE 7 9 4 5 - - -
26/02:00am - - - - - E 7 11 4 6 - - -
26/01:30am - - - - - ENE 7 9 4 5 - - -
26/01:00am - - - - - NE 11 17 6 9 - - -
26/12:30am - - - - - ENE 9 11 5 6 - - -
26/12:00am - - - - - E 9 13 5 7 - - -
 
Date/Time
EST
Temp
°C
App
Temp
°C
Dew
Point
°C
Rel
Hum
%
Delta-T
°C
Wind Press
QNH
hPa
Press
MSL
hPa
Rain since
9am
mm
Dir  Spd
km/h
Gust
km/h
Spd
kts
Gust
kts
25/11:30pm - - - - - ESE 9 13 5 7 - - -
25/11:00pm - - - - - ESE 9 11 5 6 - - -
25/10:30pm - - - - - SE 9 13 5 7 - - -
25/10:00pm - - - - - SE 13 15 7 8 - - -
25/09:30pm - - - - - SE 13 17 7 9 - - -
25/09:00pm - - - - - SE 13 15 7 8 - - -
25/08:30pm - - - - - ESE 13 19 7 10 - - -
25/08:00pm - - - - - ESE 11 17 6 9 - - -
25/07:30pm - - - - - ESE 13 19 7 10 - - -
25/07:00pm - - - - - E 7 9 4 5 - - -
25/06:30pm - - - - - E 7 9 4 5 - - -
25/06:00pm - - - - - SSW 2 6 1 3 - - -
25/05:30pm - - - - - SW 13 15 7 8 - - -
25/05:00pm - - - - - WSW 15 17 8 9 - - -
25/04:30pm - - - - - SW 11 13 6 7 - - -
25/04:00pm - - - - - CALM 0 0 0 0 - - -
25/03:30pm - - - - - CALM 0 0 0 0 - - -
25/03:00pm - - - - - CALM 0 0 0 0 - - -
25/02:30pm - - - - - CALM 0 0 0 0 - - -
25/02:00pm - - - - - WSW 11 13 6 7 - - -
25/01:30pm - - - - - WSW 13 15 7 8 - - -
25/01:00pm - - - - - W 9 11 5 6 - - -
25/12:30pm - - - - - NW 13 13 7 7 - - -
25/12:00pm - - - - - NNW 13 15 7 8 - - -
25/11:30am - - - - - NW 13 15 7 8 - - -
25/11:00am - - - - - NNW 11 13 6 7 - - -
25/10:30am - - - - - NNW 11 13 6 7 - - -
25/10:00am - - - - - NNW 13 15 7 8 - - -
25/09:30am - - - - - NNW 11 13 6 7 - - -
25/09:00am - - - - - N 9 11 5 6 - - -
25/08:30am - - - - - N 7 11 4 6 - - -
25/08:00am - - - - - NNE 7 11 4 6 - - -
25/07:30am - - - - - CALM 0 0 0 0 - - -
25/07:00am - - - - - NE 2 9 1 5 - - -
25/06:30am - - - - - ENE 7 11 4 6 - - -
25/06:00am - - - - - E 11 15 6 8 - - -
25/05:30am - - - - - E 9 13 5 7 - - -
25/05:00am - - - - - E 11 15 6 8 - - -
25/04:30am - - - - - NE 9 15 5 8 - - -
25/04:00am - - - - - W 15 17 8 9 - - -
25/03:30am - - - - - SW 2 7 1 4 - - -
25/03:00am - - - - - ESE 6 7 3 4 - - -
25/02:30am - - - - - ESE 7 11 4 6 - - -
25/02:00am - - - - - E 9 11 5 6 - - -
25/01:30am - - - - - E 7 13 4 7 - - -
25/01:00am - - - - - ESE 7 9 4 5 - - -
25/12:30am - - - - - ESE 7 7 4 4 - - -
25/12:00am - - - - - ESE 6 7 3 4 - - -
 
Date/Time
EST
Temp
°C
App
Temp
°C
Dew
Point
°C
Rel
Hum
%
Delta-T
°C
Wind Press
QNH
hPa
Press
MSL
hPa
Rain since
9am
mm
Dir  Spd
km/h
Gust
km/h
Spd
kts
Gust
kts
24/11:30pm - - - - - E 6 7 3 4 - - -
24/11:00pm - - - - - E 7 9 4 5 - - -
24/10:30pm - - - - - E 7 9 4 5 - - -
24/10:00pm - - - - - ESE 7 9 4 5 - - -
24/09:30pm - - - - - S 6 7 3 4 - - -
24/09:00pm - - - - - S 2 7 1 4 - - -
24/08:30pm - - - - - SSE 2 6 1 3 - - -
24/08:00pm - - - - - SE 7 7 4 4 - - -
24/07:30pm - - - - - SSW 11 15 6 8 - - -
24/07:00pm - - - - - SSW 11 17 6 9 - - -
24/06:30pm - - - - - SSW 13 17 7 9 - - -
24/06:00pm - - - - - SW 20 28 11 15 - - -
24/05:30pm - - - - - SW 26 32 14 17 - - -
24/05:00pm - - - - - WSW 30 32 16 17 - - -
24/04:30pm - - - - - WSW 26 30 14 16 - - -
24/04:00pm - - - - - WSW 28 32 15 17 - - -
24/03:30pm - - - - - WSW 30 33 16 18 - - -
24/03:00pm - - - - - WSW 30 33 16 18 - - -
24/02:30pm - - - - - WSW 32 35 17 19 - - -
24/02:00pm - - - - - WSW 32 35 17 19 - - -
24/01:30pm - - - - - WSW 28 32 15 17 - - -
24/01:00pm - - - - - WSW 26 30 14 16 - - -
24/12:30pm - - - - - WSW 28 33 15 18 - - -
24/12:00pm - - - - - WSW 33 41 18 22 - - -

Other formats

Comma delimited format used in spreadsheet applications
http://www.bom.gov.au/fwo/IDV60801/IDV60801.94871.axf

JavaScript Object Notation format (JSON) in row-major order
http://www.bom.gov.au/fwo/IDV60801/IDV60801.94871.json

Data quality

Most of these data are generated automatically and are frequently updated. Quality checks on data are not normally performed. It is possible for incorrect values to appear. Refer to information at About Latest Weather Observations and please check the disclaimer before using these data.